sensor_id;sensor_type;location;lat;lon;timestamp;P1;durP1;ratioP1;P2;durP2;ratioP2
47089;SDS011;32840;52.516;13.294;2023-02-12T00:00:57;19.95;;;8.00;;
47089;SDS011;32840;52.516;13.294;2023-02-12T00:03:41;14.90;;;6.80;;
47089;SDS011;32840;52.516;13.294;2023-02-12T00:06:26;18.95;;;6.55;;
47089;SDS011;32840;52.516;13.294;2023-02-12T00:09:11;22.30;;;7.25;;
47089;SDS011;32840;52.516;13.294;2023-02-12T00:11:56;15.95;;;6.53;;
47089;SDS011;32840;52.516;13.294;2023-02-12T00:14:41;20.40;;;7.47;;
47089;SDS011;32840;52.516;13.294;2023-02-12T00:17:26;18.40;;;7.30;;
47089;SDS011;32840;52.516;13.294;2023-02-12T00:20:10;19.98;;;7.68;;
47089;SDS011;32840;52.516;13.294;2023-02-12T00:22:55;23.00;;;7.68;;
47089;SDS011;32840;52.516;13.294;2023-02-12T00:25:42;29.83;;;8.00;;
47089;SDS011;32840;52.516;13.294;2023-02-12T00:28:26;15.10;;;6.53;;
47089;SDS011;32840;52.516;13.294;2023-02-12T00:31:19;17.20;;;7.50;;
47089;SDS011;32840;52.516;13.294;2023-02-12T00:34:06;17.17;;;7.13;;
47089;SDS011;32840;52.516;13.294;2023-02-12T00:36:51;19.45;;;7.32;;
47089;SDS011;32840;52.516;13.294;2023-02-12T00:39:35;16.88;;;7.30;;
47089;SDS011;32840;52.516;13.294;2023-02-12T00:42:21;19.70;;;7.40;;
47089;SDS011;32840;52.516;13.294;2023-02-12T00:45:06;22.23;;;6.88;;
47089;SDS011;32840;52.516;13.294;2023-02-12T00:47:51;22.67;;;7.25;;
47089;SDS011;32840;52.516;13.294;2023-02-12T00:50:36;21.80;;;7.35;;
47089;SDS011;32840;52.516;13.294;2023-02-12T00:53:21;16.83;;;6.63;;
47089;SDS011;32840;52.516;13.294;2023-02-12T00:56:06;19.02;;;6.97;;
47089;SDS011;32840;52.516;13.294;2023-02-12T00:58:52;19.60;;;7.03;;
47089;SDS011;32840;52.516;13.294;2023-02-12T01:01:37;23.58;;;7.28;;
47089;SDS011;32840;52.516;13.294;2023-02-12T01:04:22;22.77;;;6.85;;
47089;SDS011;32840;52.516;13.294;2023-02-12T01:07:07;25.77;;;7.45;;
47089;SDS011;32840;52.516;13.294;2023-02-12T01:09:52;23.20;;;7.88;;
47089;SDS011;32840;52.516;13.294;2023-02-12T01:12:37;16.58;;;6.13;;
47089;SDS011;32840;52.516;13.294;2023-02-12T01:15:22;18.05;;;6.45;;
47089;SDS011;32840;52.516;13.294;2023-02-12T01:18:07;18.38;;;7.15;;
47089;SDS011;32840;52.516;13.294;2023-02-12T01:20:51;15.63;;;6.25;;
47089;SDS011;32840;52.516;13.294;2023-02-12T01:23:36;24.58;;;6.57;;
47089;SDS011;32840;52.516;13.294;2023-02-12T01:26:21;17.55;;;6.20;;
47089;SDS011;32840;52.516;13.294;2023-02-12T01:29:07;19.27;;;7.00;;
47089;SDS011;32840;52.516;13.294;2023-02-12T01:31:52;23.55;;;7.03;;
47089;SDS011;32840;52.516;13.294;2023-02-12T01:34:37;17.92;;;5.93;;
47089;SDS011;32840;52.516;13.294;2023-02-12T01:37:21;20.13;;;5.97;;
47089;SDS011;32840;52.516;13.294;2023-02-12T01:40:08;19.98;;;5.85;;
47089;SDS011;32840;52.516;13.294;2023-02-12T01:42:53;19.27;;;6.43;;
47089;SDS011;32840;52.516;13.294;2023-02-12T01:45:47;17.73;;;5.82;;
47089;SDS011;32840;52.516;13.294;2023-02-12T01:48:36;16.70;;;5.47;;
47089;SDS011;32840;52.516;13.294;2023-02-12T01:51:25;19.80;;;5.72;;
47089;SDS011;32840;52.516;13.294;2023-02-12T01:54:12;19.17;;;5.68;;
47089;SDS011;32840;52.516;13.294;2023-02-12T01:57:01;19.70;;;6.05;;
47089;SDS011;32840;52.516;13.294;2023-02-12T01:59:47;19.40;;;6.03;;
47089;SDS011;32840;52.516;13.294;2023-02-12T02:02:36;16.48;;;5.95;;
47089;SDS011;32840;52.516;13.294;2023-02-12T02:05:34;17.20;;;5.88;;
47089;SDS011;32840;52.516;13.294;2023-02-12T02:08:27;15.30;;;5.78;;
47089;SDS011;32840;52.516;13.294;2023-02-12T02:11:12;20.38;;;5.40;;
47089;SDS011;32840;52.516;13.294;2023-02-12T02:14:15;16.15;;;5.32;;
47089;SDS011;32840;52.516;13.294;2023-02-12T02:27:01;19.75;;;6.57;;
47089;SDS011;32840;52.516;13.294;2023-02-12T02:33:19;19.67;;;5.88;;
47089;SDS011;32840;52.516;13.294;2023-02-12T02:36:13;18.92;;;5.43;;
47089;SDS011;32840;52.516;13.294;2023-02-12T02:39:14;18.02;;;5.50;;
47089;SDS011;32840;52.516;13.294;2023-02-12T02:48:21;26.50;;;7.00;;
47089;SDS011;32840;52.516;13.294;2023-02-12T02:51:12;17.88;;;6.00;;
47089;SDS011;32840;52.516;13.294;2023-02-12T02:54:04;20.13;;;5.75;;
47089;SDS011;32840;52.516;13.294;2023-02-12T02:57:02;22.17;;;6.75;;
47089;SDS011;32840;52.516;13.294;2023-02-12T02:59:53;20.90;;;6.43;;
47089;SDS011;32840;52.516;13.294;2023-02-12T03:02:42;24.75;;;7.55;;
47089;SDS011;32840;52.516;13.294;2023-02-12T03:05:39;19.20;;;5.32;;
47089;SDS011;32840;52.516;13.294;2023-02-12T03:08:28;17.70;;;5.93;;
47089;SDS011;32840;52.516;13.294;2023-02-12T03:11:28;20.08;;;6.55;;
47089;SDS011;32840;52.516;13.294;2023-02-12T03:17:25;18.77;;;6.60;;
47089;SDS011;32840;52.516;13.294;2023-02-12T03:20:19;18.20;;;5.70;;
47089;SDS011;32840;52.516;13.294;2023-02-12T03:23:28;23.00;;;6.70;;
47089;SDS011;32840;52.516;13.294;2023-02-12T03:26:24;23.17;;;6.68;;
47089;SDS011;32840;52.516;13.294;2023-02-12T03:29:17;22.73;;;6.35;;
47089;SDS011;32840;52.516;13.294;2023-02-12T03:32:21;20.67;;;6.72;;
47089;SDS011;32840;52.516;13.294;2023-02-12T03:35:37;24.17;;;5.90;;
47089;SDS011;32840;52.516;13.294;2023-02-12T03:38:41;15.98;;;6.50;;
47089;SDS011;32840;52.516;13.294;2023-02-12T03:41:33;17.30;;;6.45;;
47089;SDS011;32840;52.516;13.294;2023-02-12T03:47:50;23.38;;;7.57;;
47089;SDS011;32840;52.516;13.294;2023-02-12T03:50:59;24.30;;;7.53;;
47089;SDS011;32840;52.516;13.294;2023-02-12T03:53:48;16.92;;;6.95;;
47089;SDS011;32840;52.516;13.294;2023-02-12T03:56:37;19.27;;;6.57;;
47089;SDS011;32840;52.516;13.294;2023-02-12T03:59:27;22.20;;;7.50;;
47089;SDS011;32840;52.516;13.294;2023-02-12T04:02:12;17.83;;;7.25;;
47089;SDS011;32840;52.516;13.294;2023-02-12T04:05:04;22.55;;;7.50;;
47089;SDS011;32840;52.516;13.294;2023-02-12T04:07:49;21.55;;;7.18;;
47089;SDS011;32840;52.516;13.294;2023-02-12T04:19:29;28.05;;;7.18;;
47089;SDS011;32840;52.516;13.294;2023-02-12T04:32:16;21.98;;;6.75;;
47089;SDS011;32840;52.516;13.294;2023-02-12T04:35:11;23.25;;;6.28;;
47089;SDS011;32840;52.516;13.294;2023-02-12T04:38:18;21.10;;;7.38;;
47089;SDS011;32840;52.516;13.294;2023-02-12T04:41:08;20.63;;;6.50;;
47089;SDS011;32840;52.516;13.294;2023-02-12T04:43:53;21.27;;;7.03;;
47089;SDS011;32840;52.516;13.294;2023-02-12T04:46:38;17.98;;;7.05;;
47089;SDS011;32840;52.516;13.294;2023-02-12T04:49:23;24.27;;;7.47;;
47089;SDS011;32840;52.516;13.294;2023-02-12T04:52:08;22.45;;;6.68;;
47089;SDS011;32840;52.516;13.294;2023-02-12T04:54:53;25.27;;;7.85;;
47089;SDS011;32840;52.516;13.294;2023-02-12T04:57:38;21.48;;;6.75;;
47089;SDS011;32840;52.516;13.294;2023-02-12T05:00:23;21.42;;;6.47;;
47089;SDS011;32840;52.516;13.294;2023-02-12T05:03:08;21.92;;;7.60;;
47089;SDS011;32840;52.516;13.294;2023-02-12T05:05:55;27.00;;;7.18;;
47089;SDS011;32840;52.516;13.294;2023-02-12T05:08:40;20.80;;;8.27;;
47089;SDS011;32840;52.516;13.294;2023-02-12T05:11:24;22.67;;;6.95;;
47089;SDS011;32840;52.516;13.294;2023-02-12T05:14:10;20.70;;;7.95;;
47089;SDS011;32840;52.516;13.294;2023-02-12T05:16:55;23.10;;;7.75;;
47089;SDS011;32840;52.516;13.294;2023-02-12T05:19:40;23.38;;;7.55;;
47089;SDS011;32840;52.516;13.294;2023-02-12T05:22:25;19.02;;;6.68;;
47089;SDS011;32840;52.516;13.294;2023-02-12T05:25:10;23.27;;;6.40;;
47089;SDS011;32840;52.516;13.294;2023-02-12T05:27:55;20.83;;;6.10;;
47089;SDS011;32840;52.516;13.294;2023-02-12T05:30:40;24.17;;;6.75;;
47089;SDS011;32840;52.516;13.294;2023-02-12T05:33:25;26.23;;;7.80;;
47089;SDS011;32840;52.516;13.294;2023-02-12T05:36:32;24.48;;;7.63;;
47089;SDS011;32840;52.516;13.294;2023-02-12T05:39:16;23.75;;;7.88;;
47089;SDS011;32840;52.516;13.294;2023-02-12T05:42:01;26.05;;;7.28;;
47089;SDS011;32840;52.516;13.294;2023-02-12T05:44:48;23.65;;;7.20;;
47089;SDS011;32840;52.516;13.294;2023-02-12T05:47:33;21.88;;;6.88;;
47089;SDS011;32840;52.516;13.294;2023-02-12T05:50:17;19.73;;;7.43;;
47089;SDS011;32840;52.516;13.294;2023-02-12T05:53:02;19.38;;;6.60;;
47089;SDS011;32840;52.516;13.294;2023-02-12T05:55:47;23.00;;;6.97;;
47089;SDS011;32840;52.516;13.294;2023-02-12T05:58:32;22.52;;;6.60;;
47089;SDS011;32840;52.516;13.294;2023-02-12T06:01:22;19.98;;;6.82;;
47089;SDS011;32840;52.516;13.294;2023-02-12T06:04:17;20.20;;;6.72;;
47089;SDS011;32840;52.516;13.294;2023-02-12T06:07:08;24.95;;;7.43;;
47089;SDS011;32840;52.516;13.294;2023-02-12T06:09:53;19.35;;;6.75;;
47089;SDS011;32840;52.516;13.294;2023-02-12T06:12:38;25.73;;;7.32;;
47089;SDS011;32840;52.516;13.294;2023-02-12T06:15:23;24.02;;;6.15;;
47089;SDS011;32840;52.516;13.294;2023-02-12T06:18:08;25.00;;;6.90;;
47089;SDS011;32840;52.516;13.294;2023-02-12T06:20:53;25.90;;;7.40;;
47089;SDS011;32840;52.516;13.294;2023-02-12T06:23:37;25.05;;;7.78;;
47089;SDS011;32840;52.516;13.294;2023-02-12T06:26:23;26.80;;;7.38;;
47089;SDS011;32840;52.516;13.294;2023-02-12T06:29:08;22.55;;;6.32;;
47089;SDS011;32840;52.516;13.294;2023-02-12T06:31:53;21.55;;;7.28;;
47089;SDS011;32840;52.516;13.294;2023-02-12T06:34:38;24.55;;;7.20;;
47089;SDS011;32840;52.516;13.294;2023-02-12T06:37:23;22.58;;;6.57;;
47089;SDS011;32840;52.516;13.294;2023-02-12T06:40:09;20.10;;;6.93;;
47089;SDS011;32840;52.516;13.294;2023-02-12T06:42:54;22.80;;;6.55;;
47089;SDS011;32840;52.516;13.294;2023-02-12T06:45:39;22.55;;;6.50;;
47089;SDS011;32840;52.516;13.294;2023-02-12T06:48:24;24.25;;;6.20;;
47089;SDS011;32840;52.516;13.294;2023-02-12T06:51:10;25.92;;;7.20;;
47089;SDS011;32840;52.516;13.294;2023-02-12T06:53:56;26.45;;;6.70;;
47089;SDS011;32840;52.516;13.294;2023-02-12T06:56:41;26.88;;;6.38;;
47089;SDS011;32840;52.516;13.294;2023-02-12T06:59:29;29.35;;;7.40;;
47089;SDS011;32840;52.516;13.294;2023-02-12T07:02:14;21.92;;;6.15;;
47089;SDS011;32840;52.516;13.294;2023-02-12T07:05:00;24.75;;;6.90;;
47089;SDS011;32840;52.516;13.294;2023-02-12T07:07:45;24.15;;;6.65;;
47089;SDS011;32840;52.516;13.294;2023-02-12T07:10:30;22.38;;;7.10;;
47089;SDS011;32840;52.516;13.294;2023-02-12T07:13:15;21.85;;;7.50;;
47089;SDS011;32840;52.516;13.294;2023-02-12T07:16:08;22.08;;;6.00;;
47089;SDS011;32840;52.516;13.294;2023-02-12T07:18:58;18.45;;;6.15;;
47089;SDS011;32840;52.516;13.294;2023-02-12T07:21:43;24.75;;;6.97;;
47089;SDS011;32840;52.516;13.294;2023-02-12T07:24:28;23.02;;;6.97;;
47089;SDS011;32840;52.516;13.294;2023-02-12T07:27:13;19.90;;;6.93;;
47089;SDS011;32840;52.516;13.294;2023-02-12T07:29:58;24.00;;;6.47;;
47089;SDS011;32840;52.516;13.294;2023-02-12T07:32:43;20.00;;;6.80;;
47089;SDS011;32840;52.516;13.294;2023-02-12T07:35:28;20.52;;;7.18;;
47089;SDS011;32840;52.516;13.294;2023-02-12T07:38:13;20.95;;;6.30;;
47089;SDS011;32840;52.516;13.294;2023-02-12T07:41:05;27.85;;;7.20;;
47089;SDS011;32840;52.516;13.294;2023-02-12T07:43:55;28.75;;;7.00;;
47089;SDS011;32840;52.516;13.294;2023-02-12T07:46:47;22.05;;;6.63;;
47089;SDS011;32840;52.516;13.294;2023-02-12T07:49:32;24.05;;;6.38;;
47089;SDS011;32840;52.516;13.294;2023-02-12T07:52:17;21.58;;;5.53;;
47089;SDS011;32840;52.516;13.294;2023-02-12T07:55:02;27.63;;;6.18;;
47089;SDS011;32840;52.516;13.294;2023-02-12T07:57:46;37.22;;;14.02;;
47089;SDS011;32840;52.516;13.294;2023-02-12T08:00:31;24.63;;;6.15;;
47089;SDS011;32840;52.516;13.294;2023-02-12T08:03:16;26.13;;;6.35;;
47089;SDS011;32840;52.516;13.294;2023-02-12T08:06:05;23.92;;;6.13;;
47089;SDS011;32840;52.516;13.294;2023-02-12T08:08:52;21.63;;;6.53;;
47089;SDS011;32840;52.516;13.294;2023-02-12T08:11:39;22.92;;;5.68;;
47089;SDS011;32840;52.516;13.294;2023-02-12T08:14:25;21.08;;;5.68;;
47089;SDS011;32840;52.516;13.294;2023-02-12T08:17:10;20.05;;;5.95;;
47089;SDS011;32840;52.516;13.294;2023-02-12T08:19:55;19.48;;;5.95;;
47089;SDS011;32840;52.516;13.294;2023-02-12T08:22:40;16.70;;;5.50;;
47089;SDS011;32840;52.516;13.294;2023-02-12T08:25:25;21.33;;;5.97;;
47089;SDS011;32840;52.516;13.294;2023-02-12T08:28:11;16.40;;;5.90;;
47089;SDS011;32840;52.516;13.294;2023-02-12T08:31:01;21.25;;;5.35;;
47089;SDS011;32840;52.516;13.294;2023-02-12T08:33:48;19.90;;;5.57;;
47089;SDS011;32840;52.516;13.294;2023-02-12T08:36:37;21.38;;;5.85;;
47089;SDS011;32840;52.516;13.294;2023-02-12T08:39:23;27.30;;;5.93;;
47089;SDS011;32840;52.516;13.294;2023-02-12T08:42:09;19.02;;;5.25;;
47089;SDS011;32840;52.516;13.294;2023-02-12T08:44:54;17.10;;;5.90;;
47089;SDS011;32840;52.516;13.294;2023-02-12T08:47:39;22.45;;;6.63;;
47089;SDS011;32840;52.516;13.294;2023-02-12T08:50:24;18.38;;;6.70;;
47089;SDS011;32840;52.516;13.294;2023-02-12T08:53:09;25.00;;;8.38;;
47089;SDS011;32840;52.516;13.294;2023-02-12T08:55:54;22.10;;;6.53;;
47089;SDS011;32840;52.516;13.294;2023-02-12T08:58:39;15.18;;;6.07;;
47089;SDS011;32840;52.516;13.294;2023-02-12T09:01:25;16.27;;;6.43;;
47089;SDS011;32840;52.516;13.294;2023-02-12T09:04:15;21.20;;;7.20;;
47089;SDS011;32840;52.516;13.294;2023-02-12T09:07:08;22.35;;;6.07;;
47089;SDS011;32840;52.516;13.294;2023-02-12T09:09:53;21.50;;;6.00;;
47089;SDS011;32840;52.516;13.294;2023-02-12T09:12:38;28.40;;;7.20;;
47089;SDS011;32840;52.516;13.294;2023-02-12T09:15:23;22.30;;;6.55;;
47089;SDS011;32840;52.516;13.294;2023-02-12T09:18:08;25.73;;;6.93;;
47089;SDS011;32840;52.516;13.294;2023-02-12T09:20:54;23.33;;;7.20;;
47089;SDS011;32840;52.516;13.294;2023-02-12T09:23:44;27.80;;;6.93;;
47089;SDS011;32840;52.516;13.294;2023-02-12T09:26:30;22.83;;;6.68;;
47089;SDS011;32840;52.516;13.294;2023-02-12T09:29:15;20.25;;;6.82;;
47089;SDS011;32840;52.516;13.294;2023-02-12T09:32:01;23.05;;;7.05;;
47089;SDS011;32840;52.516;13.294;2023-02-12T09:34:48;22.25;;;7.28;;
47089;SDS011;32840;52.516;13.294;2023-02-12T09:37:39;23.13;;;7.72;;
47089;SDS011;32840;52.516;13.294;2023-02-12T09:50:53;24.17;;;7.07;;
47089;SDS011;32840;52.516;13.294;2023-02-12T09:53:42;26.52;;;7.68;;
47089;SDS011;32840;52.516;13.294;2023-02-12T09:56:33;30.92;;;7.97;;
47089;SDS011;32840;52.516;13.294;2023-02-12T09:59:34;22.25;;;7.25;;
47089;SDS011;32840;52.516;13.294;2023-02-12T10:02:38;23.00;;;7.63;;
47089;SDS011;32840;52.516;13.294;2023-02-12T10:05:24;25.92;;;8.38;;
47089;SDS011;32840;52.516;13.294;2023-02-12T10:08:17;26.33;;;7.85;;
47089;SDS011;32840;52.516;13.294;2023-02-12T10:17:47;26.45;;;8.98;;
47089;SDS011;32840;52.516;13.294;2023-02-12T10:26:36;26.00;;;8.68;;
47089;SDS011;32840;52.516;13.294;2023-02-12T10:29:26;24.65;;;9.63;;
47089;SDS011;32840;52.516;13.294;2023-02-12T10:32:34;26.70;;;10.25;;
47089;SDS011;32840;52.516;13.294;2023-02-12T10:35:21;27.58;;;9.35;;
47089;SDS011;32840;52.516;13.294;2023-02-12T10:41:28;20.38;;;8.75;;
47089;SDS011;32840;52.516;13.294;2023-02-12T10:44:14;23.92;;;9.80;;
47089;SDS011;32840;52.516;13.294;2023-02-12T10:47:00;18.05;;;7.55;;
47089;SDS011;32840;52.516;13.294;2023-02-12T10:49:55;27.58;;;9.45;;
47089;SDS011;32840;52.516;13.294;2023-02-12T10:52:47;22.83;;;8.77;;
47089;SDS011;32840;52.516;13.294;2023-02-12T10:55:38;22.98;;;9.00;;
47089;SDS011;32840;52.516;13.294;2023-02-12T10:58:23;26.48;;;11.77;;
47089;SDS011;32840;52.516;13.294;2023-02-12T11:01:41;24.30;;;11.45;;
47089;SDS011;32840;52.516;13.294;2023-02-12T11:04:26;22.10;;;10.00;;
47089;SDS011;32840;52.516;13.294;2023-02-12T11:09:58;23.55;;;9.80;;
47089;SDS011;32840;52.516;13.294;2023-02-12T11:12:43;30.85;;;12.57;;
47089;SDS011;32840;52.516;13.294;2023-02-12T11:15:36;19.02;;;10.52;;
47089;SDS011;32840;52.516;13.294;2023-02-12T11:18:30;35.17;;;18.63;;
47089;SDS011;32840;52.516;13.294;2023-02-12T11:21:21;19.08;;;9.45;;
47089;SDS011;32840;52.516;13.294;2023-02-12T11:24:29;17.10;;;8.13;;
47089;SDS011;32840;52.516;13.294;2023-02-12T11:27:25;16.80;;;8.65;;
47089;SDS011;32840;52.516;13.294;2023-02-12T11:30:19;15.30;;;7.78;;
47089;SDS011;32840;52.516;13.294;2023-02-12T11:33:14;20.20;;;8.60;;
47089;SDS011;32840;52.516;13.294;2023-02-12T11:36:23;14.55;;;8.93;;
47089;SDS011;32840;52.516;13.294;2023-02-12T11:39:17;16.05;;;8.45;;
47089;SDS011;32840;52.516;13.294;2023-02-12T11:42:15;19.48;;;8.32;;
47089;SDS011;32840;52.516;13.294;2023-02-12T11:45:02;22.25;;;9.00;;
47089;SDS011;32840;52.516;13.294;2023-02-12T11:47:47;20.02;;;8.95;;
47089;SDS011;32840;52.516;13.294;2023-02-12T11:50:34;22.98;;;12.73;;
47089;SDS011;32840;52.516;13.294;2023-02-12T11:53:29;18.85;;;8.95;;
47089;SDS011;32840;52.516;13.294;2023-02-12T11:56:19;22.52;;;9.88;;
47089;SDS011;32840;52.516;13.294;2023-02-12T11:59:15;20.40;;;9.48;;
47089;SDS011;32840;52.516;13.294;2023-02-12T12:02:33;18.27;;;9.15;;
47089;SDS011;32840;52.516;13.294;2023-02-12T12:05:24;17.35;;;8.60;;
47089;SDS011;32840;52.516;13.294;2023-02-12T12:08:23;25.85;;;14.00;;
47089;SDS011;32840;52.516;13.294;2023-02-12T12:14:23;20.98;;;9.45;;
47089;SDS011;32840;52.516;13.294;2023-02-12T12:17:50;21.90;;;8.63;;
47089;SDS011;32840;52.516;13.294;2023-02-12T12:24:15;17.60;;;9.57;;
47089;SDS011;32840;52.516;13.294;2023-02-12T12:27:26;19.60;;;9.27;;
47089;SDS011;32840;52.516;13.294;2023-02-12T12:34:01;20.02;;;9.70;;
47089;SDS011;32840;52.516;13.294;2023-02-12T12:37:14;19.00;;;8.60;;
47089;SDS011;32840;52.516;13.294;2023-02-12T12:43:25;18.95;;;9.20;;
47089;SDS011;32840;52.516;13.294;2023-02-12T12:46:39;16.58;;;9.15;;
47089;SDS011;32840;52.516;13.294;2023-02-12T12:52:28;16.20;;;8.27;;
47089;SDS011;32840;52.516;13.294;2023-02-12T12:58:52;19.55;;;10.80;;
47089;SDS011;32840;52.516;13.294;2023-02-12T13:14:23;12.82;;;7.25;;
47089;SDS011;32840;52.516;13.294;2023-02-12T13:17:42;11.45;;;5.68;;
47089;SDS011;32840;52.516;13.294;2023-02-12T13:23:29;11.63;;;5.65;;
47089;SDS011;32840;52.516;13.294;2023-02-12T13:26:48;11.02;;;5.47;;
47089;SDS011;32840;52.516;13.294;2023-02-12T13:29:50;11.93;;;5.82;;
47089;SDS011;32840;52.516;13.294;2023-02-12T13:32:42;10.52;;;7.00;;
47089;SDS011;32840;52.516;13.294;2023-02-12T13:35:30;11.50;;;7.40;;
47089;SDS011;32840;52.516;13.294;2023-02-12T13:38:22;13.65;;;7.55;;
47089;SDS011;32840;52.516;13.294;2023-02-12T13:41:13;18.58;;;12.45;;
47089;SDS011;32840;52.516;13.294;2023-02-12T13:47:22;10.43;;;5.25;;
47089;SDS011;32840;52.516;13.294;2023-02-12T13:50:26;8.13;;;4.38;;
47089;SDS011;32840;52.516;13.294;2023-02-12T13:56:06;9.02;;;4.88;;
47089;SDS011;32840;52.516;13.294;2023-02-12T14:05:27;10.35;;;5.68;;
47089;SDS011;32840;52.516;13.294;2023-02-12T14:08:27;11.23;;;5.75;;
47089;SDS011;32840;52.516;13.294;2023-02-12T14:14:10;8.02;;;3.97;;
47089;SDS011;32840;52.516;13.294;2023-02-12T14:16:54;9.68;;;5.07;;
47089;SDS011;32840;52.516;13.294;2023-02-12T14:25:30;13.02;;;4.82;;
47089;SDS011;32840;52.516;13.294;2023-02-12T14:31:38;9.25;;;5.28;;
47089;SDS011;32840;52.516;13.294;2023-02-12T14:37:15;10.85;;;4.88;;
47089;SDS011;32840;52.516;13.294;2023-02-12T14:43:38;11.98;;;5.80;;
47089;SDS011;32840;52.516;13.294;2023-02-12T14:46:47;8.82;;;4.97;;
47089;SDS011;32840;52.516;13.294;2023-02-12T14:52:26;10.25;;;6.22;;
47089;SDS011;32840;52.516;13.294;2023-02-12T14:55:19;13.50;;;6.85;;
47089;SDS011;32840;52.516;13.294;2023-02-12T14:58:31;12.73;;;7.05;;
47089;SDS011;32840;52.516;13.294;2023-02-12T15:01:36;8.38;;;5.07;;
47089;SDS011;32840;52.516;13.294;2023-02-12T15:04:26;10.05;;;4.85;;
47089;SDS011;32840;52.516;13.294;2023-02-12T15:07:15;10.13;;;4.95;;
47089;SDS011;32840;52.516;13.294;2023-02-12T15:10:12;9.23;;;4.78;;
47089;SDS011;32840;52.516;13.294;2023-02-12T15:13:21;10.20;;;5.30;;
47089;SDS011;32840;52.516;13.294;2023-02-12T15:16:26;9.00;;;5.20;;
47089;SDS011;32840;52.516;13.294;2023-02-12T15:19:19;13.15;;;6.53;;
47089;SDS011;32840;52.516;13.294;2023-02-12T15:22:18;14.43;;;7.72;;
47089;SDS011;32840;52.516;13.294;2023-02-12T15:25:25;12.73;;;7.47;;
47089;SDS011;32840;52.516;13.294;2023-02-12T15:28:20;13.40;;;6.55;;
47089;SDS011;32840;52.516;13.294;2023-02-12T15:31:16;9.73;;;5.03;;
47089;SDS011;32840;52.516;13.294;2023-02-12T15:34:05;19.77;;;11.27;;
47089;SDS011;32840;52.516;13.294;2023-02-12T15:36:50;13.70;;;7.25;;
47089;SDS011;32840;52.516;13.294;2023-02-12T15:39:42;11.48;;;5.60;;
47089;SDS011;32840;52.516;13.294;2023-02-12T15:42:31;12.25;;;5.80;;
47089;SDS011;32840;52.516;13.294;2023-02-12T15:45:19;13.45;;;6.50;;
47089;SDS011;32840;52.516;13.294;2023-02-12T15:51:03;10.15;;;4.70;;
47089;SDS011;32840;52.516;13.294;2023-02-12T15:54:11;8.07;;;3.80;;
47089;SDS011;32840;52.516;13.294;2023-02-12T15:57:11;11.15;;;6.85;;
47089;SDS011;32840;52.516;13.294;2023-02-12T16:02:51;15.13;;;6.75;;
47089;SDS011;32840;52.516;13.294;2023-02-12T16:05:36;8.35;;;4.85;;
47089;SDS011;32840;52.516;13.294;2023-02-12T16:08:22;9.05;;;3.90;;
47089;SDS011;32840;52.516;13.294;2023-02-12T16:11:08;9.70;;;4.20;;
47089;SDS011;32840;52.516;13.294;2023-02-12T16:13:58;12.23;;;7.15;;
47089;SDS011;32840;52.516;13.294;2023-02-12T16:17:16;16.08;;;8.95;;
47089;SDS011;32840;52.516;13.294;2023-02-12T16:20:05;8.73;;;4.30;;
47089;SDS011;32840;52.516;13.294;2023-02-12T16:23:04;10.23;;;5.47;;
47089;SDS011;32840;52.516;13.294;2023-02-12T16:25:53;12.00;;;4.97;;
47089;SDS011;32840;52.516;13.294;2023-02-12T16:28:44;9.15;;;5.68;;
47089;SDS011;32840;52.516;13.294;2023-02-12T16:31:32;10.65;;;5.43;;
47089;SDS011;32840;52.516;13.294;2023-02-12T16:34:29;8.10;;;4.95;;
47089;SDS011;32840;52.516;13.294;2023-02-12T16:40:24;10.07;;;4.40;;
47089;SDS011;32840;52.516;13.294;2023-02-12T16:43:21;7.88;;;4.10;;
47089;SDS011;32840;52.516;13.294;2023-02-12T16:46:07;6.93;;;3.63;;
47089;SDS011;32840;52.516;13.294;2023-02-12T16:48:53;7.65;;;3.55;;
47089;SDS011;32840;52.516;13.294;2023-02-12T16:51:40;8.45;;;3.20;;
47089;SDS011;32840;52.516;13.294;2023-02-12T16:54:29;5.10;;;3.22;;
47089;SDS011;32840;52.516;13.294;2023-02-12T16:57:16;8.02;;;3.70;;
47089;SDS011;32840;52.516;13.294;2023-02-12T17:00:02;7.60;;;3.40;;
47089;SDS011;32840;52.516;13.294;2023-02-12T17:02:48;7.20;;;3.42;;
47089;SDS011;32840;52.516;13.294;2023-02-12T17:05:34;10.77;;;4.90;;
47089;SDS011;32840;52.516;13.294;2023-02-12T17:08:20;11.98;;;4.00;;
47089;SDS011;32840;52.516;13.294;2023-02-12T17:11:07;9.95;;;4.55;;
47089;SDS011;32840;52.516;13.294;2023-02-12T17:13:54;8.02;;;4.05;;
47089;SDS011;32840;52.516;13.294;2023-02-12T17:16:40;6.47;;;3.30;;
47089;SDS011;32840;52.516;13.294;2023-02-12T17:19:25;7.25;;;3.95;;
47089;SDS011;32840;52.516;13.294;2023-02-12T17:22:16;7.10;;;3.60;;
47089;SDS011;32840;52.516;13.294;2023-02-12T17:25:04;6.93;;;4.15;;
47089;SDS011;32840;52.516;13.294;2023-02-12T17:27:57;7.07;;;4.30;;
47089;SDS011;32840;52.516;13.294;2023-02-12T17:30:42;7.95;;;4.65;;
47089;SDS011;32840;52.516;13.294;2023-02-12T17:33:28;8.38;;;3.80;;
47089;SDS011;32840;52.516;13.294;2023-02-12T17:36:12;11.52;;;4.80;;
47089;SDS011;32840;52.516;13.294;2023-02-12T17:38:58;8.38;;;4.60;;
47089;SDS011;32840;52.516;13.294;2023-02-12T17:41:45;8.25;;;4.53;;
47089;SDS011;32840;52.516;13.294;2023-02-12T17:44:30;11.15;;;4.45;;
47089;SDS011;32840;52.516;13.294;2023-02-12T17:47:15;12.05;;;5.13;;
47089;SDS011;32840;52.516;13.294;2023-02-12T17:50:00;9.30;;;4.85;;
47089;SDS011;32840;52.516;13.294;2023-02-12T17:52:45;10.35;;;5.05;;
47089;SDS011;32840;52.516;13.294;2023-02-12T17:55:30;9.32;;;4.90;;
47089;SDS011;32840;52.516;13.294;2023-02-12T17:58:18;7.65;;;4.90;;
47089;SDS011;32840;52.516;13.294;2023-02-12T18:01:07;10.25;;;5.60;;
47089;SDS011;32840;52.516;13.294;2023-02-12T18:03:55;9.98;;;6.13;;
47089;SDS011;32840;52.516;13.294;2023-02-12T18:06:41;8.60;;;5.68;;
47089;SDS011;32840;52.516;13.294;2023-02-12T18:09:26;11.00;;;5.68;;
47089;SDS011;32840;52.516;13.294;2023-02-12T18:12:11;11.77;;;6.18;;
47089;SDS011;32840;52.516;13.294;2023-02-12T18:14:56;14.38;;;5.63;;
47089;SDS011;32840;52.516;13.294;2023-02-12T18:17:42;13.90;;;6.78;;
47089;SDS011;32840;52.516;13.294;2023-02-12T18:20:28;11.70;;;5.45;;
47089;SDS011;32840;52.516;13.294;2023-02-12T18:23:13;11.88;;;7.00;;
47089;SDS011;32840;52.516;13.294;2023-02-12T18:25:59;13.15;;;5.85;;
47089;SDS011;32840;52.516;13.294;2023-02-12T18:28:47;13.55;;;6.25;;
47089;SDS011;32840;52.516;13.294;2023-02-12T18:31:32;12.60;;;6.63;;
47089;SDS011;32840;52.516;13.294;2023-02-12T18:34:17;13.00;;;7.28;;
47089;SDS011;32840;52.516;13.294;2023-02-12T18:37:06;14.68;;;6.32;;
47089;SDS011;32840;52.516;13.294;2023-02-12T18:39:52;15.05;;;7.07;;
47089;SDS011;32840;52.516;13.294;2023-02-12T18:42:38;9.90;;;5.93;;
47089;SDS011;32840;52.516;13.294;2023-02-12T18:45:23;9.68;;;5.53;;
47089;SDS011;32840;52.516;13.294;2023-02-12T18:48:08;9.80;;;5.90;;
47089;SDS011;32840;52.516;13.294;2023-02-12T18:50:58;14.55;;;6.05;;
47089;SDS011;32840;52.516;13.294;2023-02-12T18:53:45;11.88;;;6.22;;
47089;SDS011;32840;52.516;13.294;2023-02-12T18:56:31;10.93;;;6.05;;
47089;SDS011;32840;52.516;13.294;2023-02-12T18:59:17;11.25;;;5.95;;
47089;SDS011;32840;52.516;13.294;2023-02-12T19:02:04;10.82;;;6.18;;
47089;SDS011;32840;52.516;13.294;2023-02-12T19:04:49;10.60;;;5.72;;
47089;SDS011;32840;52.516;13.294;2023-02-12T19:07:34;11.52;;;6.60;;